createdAt,value
2019-03-08T11:31:06.353Z,101028.09
2019-03-08T11:33:44.117Z,101021.86
2019-03-08T11:36:45.944Z,101032.75
2019-03-08T11:39:35.823Z,101031.34
2019-03-08T11:42:13.370Z,101051.89
2019-03-08T11:44:46.565Z,100782.73
2019-03-08T11:47:38.111Z,100787.83
2019-03-08T11:50:57.422Z,100541.92
2019-03-08T11:53:57.971Z,101376.80
2019-03-08T11:56:43.063Z,100343.17
2019-03-08T11:59:30.469Z,100439.24
2019-03-08T12:02:22.927Z,100714.28
2019-03-08T12:05:14.108Z,100877.63
2019-03-08T12:07:50.297Z,101063.09
2019-03-08T12:10:24.308Z,100311.38
2019-03-08T12:12:57.290Z,100135.20
2019-03-08T12:15:48.032Z,100104.36
2019-03-08T12:18:21.570Z,99949.48
2019-03-08T12:20:54.170Z,100073.89
2019-03-08T12:23:29.511Z,100086.56
2019-03-08T12:26:19.180Z,100337.67
2019-03-08T12:28:51.916Z,100582.95
2019-03-08T12:31:27.613Z,100641.44
2019-03-08T12:34:01.139Z,100642.92
2019-03-08T12:36:38.053Z,100631.28
2019-03-08T12:39:16.830Z,100625.92
2019-03-08T12:45:23.921Z,100637.98
2019-03-08T12:48:13.953Z,100616.58
2019-03-08T12:51:11.093Z,100624.97
2019-03-08T12:54:00.839Z,100673.66
2019-03-08T12:56:37.092Z,100659.14
2019-03-08T12:59:12.465Z,100617.48
2019-03-08T13:01:44.760Z,100623.26
2019-03-08T13:04:17.487Z,100623.73
2019-03-08T13:07:06.633Z,100622.78
2019-03-08T13:09:39.152Z,100608.27
2019-03-08T13:12:10.007Z,100604.67
2019-03-08T13:14:40.954Z,100611.13
2019-03-08T13:17:11.886Z,100595.27
2019-03-08T13:19:42.739Z,100606.39
2019-03-08T13:22:14.299Z,100599.28
2019-03-08T13:24:45.328Z,100591.30
2019-03-08T13:27:16.408Z,100584.08
2019-03-08T13:29:48.054Z,100590.17
2019-03-08T13:32:18.935Z,100592.94
2019-03-08T13:34:50.167Z,100592.96
2019-03-08T13:37:21.595Z,100583.45
2019-03-08T13:39:53.507Z,100589.02
2019-03-08T13:42:48.126Z,100593.04
2019-03-08T13:45:41.386Z,100593.91
2019-03-08T13:48:19.327Z,100574.55
2019-03-08T13:50:53.252Z,100569.55
2019-03-08T13:53:30.367Z,100580.25
2019-03-08T13:56:03.913Z,100585.02
2019-03-08T13:58:35.160Z,100591.84
2019-03-08T14:01:06.192Z,100587.91
2019-03-08T14:03:37.354Z,100594.97
2019-03-08T14:06:08.461Z,100601.20
2019-03-08T14:08:39.634Z,100587.32
2019-03-08T14:11:10.488Z,100593.36
2019-03-08T14:13:41.617Z,100585.30
2019-03-08T14:16:12.275Z,100591.70
2019-03-08T14:18:43.335Z,100583.27
2019-03-08T14:21:14.122Z,100579.39
2019-03-08T14:23:45.355Z,100575.14
2019-03-08T14:26:16.367Z,100577.06
2019-03-08T14:28:48.000Z,100565.98
2019-03-08T14:31:21.121Z,100566.05
2019-03-08T14:33:52.087Z,100562.58
2019-03-08T14:36:23.087Z,100564.34
2019-03-08T14:38:54.055Z,100570.38
2019-03-08T14:41:30.648Z,100568.16
2019-03-08T14:44:11.008Z,100555.00
2019-03-08T14:46:53.044Z,100550.23
2019-03-08T14:49:25.397Z,100540.34
2019-03-08T14:51:56.429Z,100534.32
2019-03-08T14:54:46.424Z,100533.45
2019-03-08T14:57:27.106Z,100525.55
2019-03-08T14:59:53.144Z,100540.03
2019-03-08T15:02:26.615Z,100545.73
2019-03-08T15:04:58.560Z,100548.64
2019-03-08T15:07:32.355Z,100551.48
2019-03-08T15:10:06.287Z,100567.34
2019-03-08T15:12:36.478Z,100556.38
2019-03-08T15:15:12.850Z,100572.44
2019-03-08T15:17:43.953Z,100567.84
2019-03-08T15:20:19.387Z,100567.73
2019-03-08T15:22:50.661Z,100579.70
2019-03-08T15:25:21.921Z,100589.08
2019-03-08T15:27:52.896Z,100579.48
2019-03-08T15:30:23.831Z,100581.81
2019-03-08T15:32:54.790Z,100580.02
2019-03-08T15:35:25.614Z,100588.75
2019-03-08T15:37:58.428Z,100584.72
2019-03-08T15:40:33.109Z,100583.00
2019-03-08T15:43:03.109Z,100594.00
2019-03-08T15:45:34.802Z,100585.65
2019-03-08T15:48:05.875Z,100587.75
2019-03-08T15:50:37.219Z,100586.98
2019-03-08T15:53:08.333Z,100591.14
2019-03-08T15:55:39.147Z,100582.02
2019-03-08T15:58:10.540Z,100589.00
2019-03-08T16:00:41.272Z,100590.64
2019-03-08T16:03:12.204Z,100584.09
2019-03-08T16:05:43.473Z,100592.14
2019-03-08T16:08:14.960Z,100595.97
2019-03-08T16:10:45.951Z,100602.78
2019-03-08T16:13:17.140Z,100606.59
2019-03-08T16:15:48.039Z,100621.98
2019-03-08T16:18:18.886Z,100607.07
2019-03-08T16:20:49.466Z,100625.30
2019-03-08T16:23:21.297Z,100621.70
2019-03-08T16:25:52.376Z,100627.53
2019-03-08T16:28:23.228Z,100630.45
2019-03-08T16:31:05.698Z,100626.67
2019-03-08T16:33:38.272Z,100627.83
2019-03-08T16:36:16.893Z,100631.81
2019-03-08T16:38:52.686Z,100632.36
2019-03-08T16:41:25.140Z,100642.59
2019-03-08T16:44:04.000Z,100642.25
2019-03-08T16:46:36.807Z,100641.86
2019-03-08T16:49:27.822Z,100641.23
2019-03-08T16:52:05.884Z,100637.28
2019-03-08T16:54:53.792Z,100635.95
2019-03-08T16:57:41.845Z,100640.72
2019-03-08T17:00:20.346Z,100645.92
2019-03-08T17:02:55.868Z,100638.80
2019-03-08T17:05:34.705Z,100640.81
2019-03-08T17:08:16.219Z,100636.44
2019-03-08T17:10:55.000Z,100638.73
2019-03-08T17:13:27.680Z,100627.77
2019-03-08T17:16:06.012Z,100632.36
2019-03-08T17:18:38.403Z,100637.79
2019-03-08T17:21:14.753Z,100630.16
2019-03-08T17:24:03.173Z,100618.30
2019-03-08T17:26:38.694Z,100633.61
2019-03-08T17:29:13.972Z,100632.33
2019-03-08T17:31:53.106Z,100635.45
2019-03-08T17:34:28.426Z,100619.73
2019-03-08T17:37:01.641Z,100614.30
2019-03-08T17:39:40.493Z,100622.28
2019-03-08T17:42:29.934Z,100621.82
2019-03-08T17:45:03.433Z,100625.38
2019-03-08T17:47:45.497Z,100628.97
2019-03-08T17:50:23.787Z,100625.73
2019-03-08T17:52:59.367Z,100619.44
2019-03-08T17:55:48.346Z,100620.91
2019-03-08T17:58:32.909Z,100615.91
2019-03-08T18:01:21.640Z,100622.84
2019-03-08T18:03:54.526Z,100618.69
2019-03-08T18:06:43.388Z,100622.48
2019-03-08T18:09:35.438Z,100623.84
2019-03-08T18:12:08.692Z,100624.11
2019-03-08T18:14:57.059Z,100638.06
2019-03-08T18:17:35.608Z,100626.22
2019-03-08T18:20:09.927Z,100635.17
2019-03-08T18:22:45.247Z,100623.48
2019-03-08T18:25:25.707Z,100634.06
2019-03-08T18:28:14.406Z,100637.98
2019-03-08T18:30:53.074Z,100632.77
2019-03-08T18:33:32.227Z,100622.91
2019-03-08T18:36:04.725Z,100632.28
2019-03-08T18:38:53.650Z,100634.03
2019-03-08T18:41:30.395Z,100634.03
2019-03-08T18:44:09.122Z,100614.55
2019-03-08T18:46:59.428Z,100622.58
2019-03-08T18:49:48.711Z,100632.08
2019-03-08T18:52:36.637Z,100623.67
2019-03-08T18:55:12.760Z,100623.53
2019-03-08T18:57:45.375Z,100619.89
2019-03-08T19:00:33.957Z,100616.30
2019-03-08T19:03:10.695Z,100620.14
2019-03-08T19:05:49.826Z,100626.02
2019-03-08T19:08:22.508Z,100621.22
2019-03-08T19:10:55.501Z,100623.48
2019-03-08T19:13:27.644Z,100612.10
2019-03-08T19:16:13.648Z,100610.31
2019-03-08T19:18:56.890Z,100613.14
2019-03-08T19:21:48.067Z,100622.41
2019-03-08T19:24:26.827Z,100636.48
2019-03-08T19:27:05.206Z,100633.70
2019-03-08T19:29:42.101Z,100632.87
2019-03-08T19:32:32.980Z,100642.34
2019-03-08T19:35:15.387Z,100636.35
2019-03-08T19:37:57.549Z,100644.20
2019-03-08T19:40:39.236Z,100653.42
2019-03-08T19:43:12.802Z,100658.22
2019-03-08T19:45:45.681Z,100654.08
2019-03-08T19:48:19.572Z,100659.33
2019-03-08T19:50:58.116Z,100650.94
2019-03-08T19:53:30.784Z,100651.66
2019-03-08T19:56:18.076Z,100645.19
2019-03-08T19:58:50.485Z,100650.84
2019-03-08T20:01:26.330Z,100656.02
2019-03-08T20:04:02.083Z,100656.91
2019-03-08T20:06:40.803Z,100654.45
2019-03-08T20:09:13.377Z,100646.50
2019-03-08T20:12:01.490Z,100647.96
